createdAt,value
2022-11-12T04:03:02.240Z,101725.88
2022-11-12T04:06:07.042Z,101755.34
2022-11-12T04:08:54.097Z,101755.25
2022-11-12T04:11:41.181Z,101761.03
2022-11-12T04:14:28.003Z,101760.34
2022-11-12T04:17:32.511Z,101754.41
2022-11-12T04:20:38.871Z,101766.13
2022-11-12T04:23:25.783Z,101767.13
2022-11-12T04:26:23.861Z,101769.59
2022-11-12T04:29:28.412Z,101766.13
2022-11-12T04:32:15.173Z,101772.47
2022-11-12T04:35:02.428Z,101768.66
2022-11-12T04:37:50.889Z,101772.63
2022-11-12T04:40:55.238Z,101767.47
2022-11-12T04:43:59.517Z,101769.94
2022-11-12T04:46:46.522Z,101764.78
2022-11-12T04:49:33.588Z,101768.38
2022-11-12T04:52:20.937Z,101766.19
2022-11-12T04:55:10.868Z,101763.69
2022-11-12T04:58:00.545Z,101766.38
2022-11-12T05:00:48.993Z,101759.19
2022-11-12T05:03:36.218Z,101767.28
2022-11-12T05:06:40.954Z,101770.72
2022-11-12T05:09:30.100Z,101770.09
2022-11-12T05:12:18.385Z,101761.13
2022-11-12T05:15:06.912Z,101760.06
2022-11-12T05:17:54.263Z,101767.84
2022-11-12T05:20:41.034Z,101764.84
2022-11-12T05:23:27.952Z,101774.53
2022-11-12T05:26:14.913Z,101769.38
2022-11-12T05:29:08.475Z,101761.78
2022-11-12T05:31:55.811Z,101762.50
2022-11-12T05:34:43.229Z,101771.78
2022-11-12T05:37:30.103Z,101772.28
2022-11-12T05:40:17.381Z,101772.66
2022-11-12T05:43:04.138Z,101774.16
2022-11-12T05:45:52.423Z,101776.88
2022-11-12T05:48:39.382Z,101772.25
2022-11-12T05:51:26.280Z,101764.09
2022-11-12T05:54:14.031Z,101775.38
2022-11-12T05:57:01.104Z,101778.31
2022-11-12T05:59:48.178Z,101775.72
2022-11-12T06:02:36.571Z,101784.09
2022-11-12T06:05:23.501Z,101779.63
2022-11-12T06:08:10.656Z,101771.25
2022-11-12T06:10:58.279Z,101781.06
2022-11-12T06:13:45.157Z,101776.47
2022-11-12T06:16:32.448Z,101780.53
2022-11-12T06:19:20.732Z,101782.44
2022-11-12T06:22:07.515Z,101794.59
2022-11-12T06:24:54.540Z,101787.59
2022-11-12T06:27:41.948Z,101788.13
2022-11-12T06:30:29.164Z,101788.13
2022-11-12T06:33:15.781Z,101789.13
2022-11-12T06:36:06.807Z,101794.19
2022-11-12T06:38:53.746Z,101794.19
2022-11-12T06:41:41.004Z,101796.47
2022-11-12T06:44:27.748Z,101795.38
2022-11-12T06:47:14.917Z,101799.41
2022-11-12T06:50:02.447Z,101794.28
2022-11-12T06:52:50.851Z,101797.13
2022-11-12T06:55:37.687Z,101809.16
2022-11-12T06:58:25.192Z,101798.00
2022-11-12T07:01:15.812Z,101800.03
2022-11-12T07:04:02.889Z,101797.56
2022-11-12T07:06:49.969Z,101805.19
2022-11-12T07:09:38.242Z,101805.59
2022-11-12T07:12:25.091Z,101812.03
2022-11-12T07:15:12.541Z,101807.31
2022-11-12T07:17:59.626Z,101810.97
2022-11-12T07:20:46.949Z,101803.00
2022-11-12T07:23:36.557Z,101813.66
2022-11-12T07:26:27.839Z,101810.50
2022-11-12T07:29:24.963Z,101816.41
2022-11-12T07:32:20.918Z,101810.53
2022-11-12T07:35:09.320Z,101812.38
2022-11-12T07:37:59.642Z,101803.81
2022-11-12T07:40:46.696Z,101808.25
2022-11-12T07:43:36.904Z,101804.25
2022-11-12T07:46:27.437Z,101817.22
2022-11-12T07:49:14.405Z,101806.63
2022-11-12T07:52:01.665Z,101806.75
2022-11-12T07:54:48.782Z,101804.22
2022-11-12T07:57:35.569Z,101806.13
2022-11-12T08:00:24.376Z,101801.81
2022-11-12T08:03:11.285Z,101793.72
2022-11-12T08:06:00.836Z,101798.41
2022-11-12T08:08:47.584Z,101803.16
2022-11-12T08:11:34.867Z,101805.88
2022-11-12T08:14:21.534Z,101799.53
2022-11-12T08:17:09.821Z,101814.31
2022-11-12T08:19:56.620Z,101809.28
2022-11-12T08:22:48.896Z,101820.16
2022-11-12T08:25:36.427Z,101810.06
2022-11-12T08:28:23.228Z,101816.75
2022-11-12T08:31:12.844Z,101817.66
2022-11-12T08:34:12.006Z,101818.50
2022-11-12T08:36:59.294Z,101814.16
2022-11-12T08:39:46.456Z,101811.69
2022-11-12T08:42:33.410Z,101807.97
2022-11-12T08:45:20.495Z,101812.91
2022-11-12T08:48:09.791Z,101810.84
2022-11-12T08:50:58.748Z,101816.09
2022-11-12T08:53:45.676Z,101818.88
2022-11-12T08:56:33.949Z,101807.66
2022-11-12T08:59:20.874Z,101815.13
2022-11-12T09:02:13.515Z,101805.00
2022-11-12T09:05:00.380Z,101816.72
2022-11-12T09:07:50.337Z,101820.63
2022-11-12T09:10:38.977Z,101817.28
2022-11-12T09:13:26.363Z,101806.00
2022-11-12T09:16:13.650Z,101820.47
2022-11-12T09:19:00.476Z,101817.03
2022-11-12T09:21:47.466Z,101816.53
2022-11-12T09:24:36.073Z,101806.44
2022-11-12T09:27:22.940Z,101810.59
2022-11-12T09:30:11.445Z,101808.25
2022-11-12T09:32:59.369Z,101810.75
2022-11-12T09:35:47.661Z,101807.31
2022-11-12T09:38:34.861Z,101812.13
2022-11-12T09:41:34.383Z,101814.59
2022-11-12T09:44:24.361Z,101816.13
2022-11-12T09:47:18.373Z,101819.03
2022-11-12T09:50:23.100Z,101815.75
2022-11-12T09:53:24.106Z,101823.41
2022-11-12T09:56:14.883Z,101821.94
2022-11-12T09:59:03.156Z,101823.34
2022-11-12T10:02:02.551Z,101822.13
2022-11-12T10:05:04.958Z,101815.06
2022-11-12T10:08:07.864Z,101813.31
2022-11-12T10:11:04.904Z,101814.97
2022-11-12T10:14:07.402Z,101809.91
2022-11-12T10:17:03.876Z,101807.03
2022-11-12T10:20:02.430Z,101805.22
2022-11-12T10:23:12.644Z,101799.06
2022-11-12T10:26:02.386Z,101793.66
2022-11-12T10:28:51.874Z,101790.22
2022-11-12T10:31:40.771Z,101794.53
2022-11-12T10:34:27.573Z,101793.75
2022-11-12T10:37:20.289Z,101792.06
2022-11-12T10:40:31.922Z,101783.75
2022-11-12T10:43:24.861Z,101792.75
2022-11-12T10:46:21.215Z,101790.19
2022-11-12T10:49:25.052Z,101791.91
2022-11-12T10:52:24.210Z,101787.16
2022-11-12T10:55:19.217Z,101786.75
2022-11-12T10:58:19.786Z,101789.75
2022-11-12T11:01:15.363Z,101787.34
2022-11-12T11:04:02.710Z,101779.97
2022-11-12T11:07:01.055Z,101779.47
2022-11-12T11:09:55.567Z,101788.34
2022-11-12T11:12:42.292Z,101771.97
2022-11-12T11:15:29.283Z,101776.03
2022-11-12T11:18:16.468Z,101774.88
2022-11-12T11:21:45.695Z,101772.25
2022-11-12T11:24:43.151Z,101769.91
2022-11-12T11:27:36.975Z,101767.25
2022-11-12T11:30:24.103Z,101762.94
2022-11-12T11:33:27.627Z,101756.59
2022-11-12T11:36:25.298Z,101748.09
2022-11-12T11:39:23.644Z,101744.78
2022-11-12T11:42:44.190Z,101740.50
2022-11-12T11:45:45.627Z,101742.41
2022-11-12T11:48:51.091Z,101735.66
2022-11-12T11:51:49.409Z,101739.41
2022-11-12T11:55:03.154Z,101741.31
2022-11-12T11:58:05.761Z,101733.91
2022-11-12T12:01:02.600Z,101732.19
2022-11-12T12:04:25.468Z,101726.72
2022-11-12T12:07:26.721Z,101727.94
2022-11-12T12:10:30.357Z,101727.75
2022-11-12T12:13:50.208Z,101720.31
2022-11-12T12:16:51.858Z,101724.84
2022-11-12T12:19:57.210Z,101714.72
2022-11-12T12:22:51.906Z,101709.63
2022-11-12T12:25:42.289Z,101710.56
2022-11-12T12:28:40.728Z,101717.69
2022-11-12T12:31:36.406Z,101703.31
2022-11-12T12:34:29.001Z,101711.09
2022-11-12T12:37:27.571Z,101706.44
2022-11-12T12:40:22.307Z,101701.44
2022-11-12T12:43:20.631Z,101707.91
2022-11-12T12:46:14.765Z,101693.84
2022-11-12T12:49:03.169Z,101690.41
2022-11-12T12:51:55.438Z,101686.22
2022-11-12T12:54:59.573Z,101683.50
2022-11-12T12:57:46.507Z,101686.16
